Details From KRIC - Richmond Intl
To KCXE - CHASE CITY MUNI
Flight Number -
Tags decoded
Created
Modified
Stats Distance 71 nm / 132 km
Max Altitude 0 ft / 0 m
Waypoints 2
Social Downloads 0
Likes 0
Share

Download

Looking for another format? Having issues loading an existing format? Contact us
Advertisement - Login to hide

Notes

Requested: KRIC KCXE

Route

KRIC KCXE

ID Type Via Altitude (ft/m) Position (lat/lon) Dist (leg/tot) Name
O KRIC APT - 0 / 0 37.50473 / -77.32011 - / 0 nm Richmond Intl
O KCXE APT - 0 / 0 36.78832 / -78.50155 71 / 71 nm CHASE CITY MUNI

Altitude Profile

Advertisement - Login to hide

KRIC

Details ICAO KRIC (RIC)
Name Richmond Intl
Region United States
Timezone America/New_York (UTC-4.0)
Stats Elevation 166 ft / 51 m (AMSL)
Location 37.504700° -77.320100°
Runways 3
Magnetic Variation 10.439° W

METAR

KRIC 271654Z 02004KT 10SM OVC005 16/14 A3020 RMK AO2 SLP229 CIG 004V007 T01610144

Decode

TAF

KRIC 271516Z 2715/2812 31003KT 3SM BR OVC006 FM271600 06003KT P6SM BKN012 FM272100 13003KT P6SM BKN050 FM280600 00000KT P6SM BKN004

Decode

Departure Runways

ID Width Length Bearing (true/mag) Surface Threshold Overrun Markings Lighting
02 151 ft / 46 m 6,619 ft / 2,018 m 13.39° / 23.83° ASPHALT 0 ft / 0 m 125 ft / 38 m PREC-APP EDGE THRESHOLD SALS REIL-OMNI
07 98 ft / 30 m 5,312 ft / 1,619 m 57.36° / 67.79° ASPHALT 0 ft / 0 m 200 ft / 61 m APP EDGE THRESHOLD
16 151 ft / 46 m 9,008 ft / 2,746 m 147.59° / 158.03° ASPHALT 0 ft / 0 m 1,001 ft / 305 m PREC-APP CENTERLINE EDGE THRESHOLD SALS REIL-OMNI
20 151 ft / 46 m 6,619 ft / 2,018 m 193.39° / 203.83° ASPHALT 0 ft / 0 m 276 ft / 84 m PREC-APP EDGE THRESHOLD REIL-OMNI
25 98 ft / 30 m 5,312 ft / 1,619 m 237.37° / 247.80° ASPHALT 0 ft / 0 m 0 ft / 0 m APP EDGE THRESHOLD REIL-OMNI
34 151 ft / 46 m 9,008 ft / 2,746 m 327.60° / 338.04° ASPHALT 0 ft / 0 m 1,001 ft / 305 m PREC-APP CENTERLINE EDGE THRESHOLD ALSF-II TDZ REIL-OMNI

KCXE

Details ICAO KCXE
Name CHASE CITY MUNI
Region United States
Timezone America/New_York (UTC-4.0)
Stats Elevation 503 ft / 153 m (AMSL)
Location 36.788300° -78.501500°
Runways 1
Magnetic Variation 9.623° W

METAR

KCXE 271735Z AUTO 00000KT 10SM OVC004 16/15 A3017 RMK AO1 T01610153

Decode

TAF

Not found

Destination Runways

ID Width Length Bearing (true/mag) Surface Threshold Overrun Markings Lighting
18 50 ft / 15 m 3,407 ft / 1,039 m 174.64° / 184.26° ASPHALT 0 ft / 0 m 0 ft / 0 m APP EDGE THRESHOLD
36 50 ft / 15 m 3,407 ft / 1,039 m 354.64° / 4.26° ASPHALT 0 ft / 0 m 0 ft / 0 m APP EDGE THRESHOLD

Popular Alternatives